createdAt,value
2017-12-26T00:00:02.247Z,7.2
2017-12-26T00:05:01.433Z,7.2
2017-12-26T00:10:01.315Z,7.2
2017-12-26T00:15:01.591Z,7.2
2017-12-26T00:20:01.577Z,7.2
2017-12-26T00:25:01.612Z,7.2
2017-12-26T00:30:01.185Z,7.2
2017-12-26T00:35:02.718Z,7.2
2017-12-26T00:40:01.406Z,7.2
2017-12-26T00:45:01.924Z,7.2
2017-12-26T00:50:01.710Z,7.2
2017-12-26T00:55:02.034Z,7.2
2017-12-26T01:00:01.989Z,7.2
2017-12-26T01:05:02.076Z,7.2
2017-12-26T01:10:01.860Z,7.2
2017-12-26T01:15:02.165Z,7.2
2017-12-26T01:20:01.777Z,7.2
2017-12-26T01:25:01.927Z,7.2
2017-12-26T01:30:02.528Z,7.2
2017-12-26T01:35:01.408Z,7.2
2017-12-26T01:40:01.237Z,7.2
2017-12-26T01:45:01.562Z,7.2
2017-12-26T01:50:01.936Z,7.2
2017-12-26T01:55:01.804Z,7.2
2017-12-26T02:00:01.913Z,7.2
2017-12-26T02:05:01.973Z,7.2
2017-12-26T02:10:01.673Z,7.2
2017-12-26T02:15:01.896Z,7.2
2017-12-26T02:20:02.224Z,7.2
2017-12-26T02:25:01.340Z,5.9
2017-12-26T02:30:01.619Z,5.9
2017-12-26T02:35:02.000Z,5.9
2017-12-26T02:40:02.148Z,5.9
2017-12-26T02:45:01.341Z,5.9
2017-12-26T02:50:01.202Z,5.9
2017-12-26T02:55:01.826Z,5.9
2017-12-26T03:00:02.143Z,5.9
2017-12-26T03:05:01.908Z,5.9
2017-12-26T03:10:01.738Z,5.9
2017-12-26T03:15:02.723Z,5.9
2017-12-26T03:20:01.355Z,5.9
2017-12-26T03:25:02.078Z,5.9
2017-12-26T03:30:01.381Z,5.9
2017-12-26T03:35:02.489Z,5.9
2017-12-26T03:40:01.904Z,5.9
2017-12-26T03:45:02.001Z,5.9
2017-12-26T03:50:01.373Z,5.9
2017-12-26T03:55:01.862Z,5.9
2017-12-26T04:00:01.966Z,5.9
2017-12-26T04:05:01.271Z,5.9
2017-12-26T04:10:02.191Z,5.9
2017-12-26T04:15:01.585Z,5.9
2017-12-26T04:20:01.541Z,5.9
2017-12-26T04:25:01.234Z,5.6
2017-12-26T04:30:01.942Z,5.6
2017-12-26T04:35:01.334Z,5.6
2017-12-26T04:40:01.401Z,5.6
2017-12-26T04:45:02.409Z,5.6
2017-12-26T04:50:01.183Z,5.6
2017-12-26T04:55:01.845Z,5.6
2017-12-26T05:00:02.625Z,5.6
2017-12-26T05:05:02.155Z,5.6
2017-12-26T05:10:02.025Z,5.6
2017-12-26T05:15:01.791Z,5.6
2017-12-26T05:20:02.259Z,5.6
2017-12-26T05:25:01.652Z,5.6
2017-12-26T05:30:01.935Z,5.6
2017-12-26T05:35:01.400Z,5.6
2017-12-26T05:40:02.196Z,5.6
2017-12-26T05:45:02.141Z,4.9
2017-12-26T05:50:01.935Z,4.9
2017-12-26T05:55:01.956Z,4.9
2017-12-26T06:00:02.651Z,4.7
2017-12-26T06:05:01.399Z,4.7
2017-12-26T06:10:01.413Z,4.7
2017-12-26T06:15:01.238Z,4.5
2017-12-26T06:20:02.223Z,4.5
2017-12-26T06:25:01.776Z,4.5
2017-12-26T06:30:02.050Z,4.5
2017-12-26T06:35:01.959Z,4.5
2017-12-26T06:40:02.422Z,4.5
2017-12-26T06:45:01.435Z,4.5
2017-12-26T06:50:01.771Z,4.5
2017-12-26T06:55:02.517Z,4.5
2017-12-26T07:00:01.934Z,4.5
2017-12-26T07:05:01.819Z,4.5
2017-12-26T07:10:02.728Z,3.8
2017-12-26T07:15:02.450Z,3.8
2017-12-26T07:20:01.916Z,3.8
2017-12-26T07:25:02.351Z,3.8
2017-12-26T07:30:02.208Z,3.6
2017-12-26T07:35:01.819Z,3.6
2017-12-26T07:40:01.860Z,3.6
2017-12-26T07:45:02.483Z,3.6
2017-12-26T07:50:01.359Z,3.6
2017-12-26T07:55:01.857Z,3.6
2017-12-26T08:00:02.614Z,3.6
2017-12-26T08:05:01.818Z,3.6
2017-12-26T08:10:01.998Z,3.6
2017-12-26T08:15:01.273Z,3.6
2017-12-26T08:20:02.379Z,3.6
2017-12-26T08:25:01.844Z,3.6
2017-12-26T08:30:01.277Z,3.6
2017-12-26T08:35:01.462Z,3.6
2017-12-26T08:40:01.831Z,3.6
2017-12-26T08:45:01.844Z,3.6
2017-12-26T08:50:02.001Z,3.6
2017-12-26T08:55:02.438Z,3.6
2017-12-26T09:00:01.729Z,3.6
2017-12-26T09:05:01.767Z,3.6
2017-12-26T09:10:02.555Z,3.6
2017-12-26T09:15:01.705Z,3.6
2017-12-26T09:20:02.045Z,3.6
2017-12-26T09:25:02.004Z,3.6
2017-12-26T09:30:01.861Z,3.6
2017-12-26T09:35:02.047Z,3.6
2017-12-26T09:40:02.226Z,3.6
2017-12-26T09:45:01.898Z,5.4
2017-12-26T09:50:01.978Z,5.4
2017-12-26T09:55:01.814Z,5.4
2017-12-26T10:00:01.768Z,5.4
2017-12-26T10:05:02.737Z,5.4
2017-12-26T10:10:01.699Z,5.4
2017-12-26T10:15:01.570Z,5.4
2017-12-26T10:20:01.358Z,5.4
2017-12-26T10:25:02.165Z,5.4
2017-12-26T10:30:01.798Z,5.4
2017-12-26T10:35:01.972Z,5.4
2017-12-26T10:40:01.695Z,6.8
2017-12-26T10:45:02.297Z,6.8
2017-12-26T10:50:01.206Z,6.8
2017-12-26T10:55:01.214Z,6.8
2017-12-26T11:00:01.939Z,6.8
2017-12-26T11:05:02.352Z,6.8
2017-12-26T11:10:01.152Z,6.8
2017-12-26T11:15:01.416Z,7.2
2017-12-26T11:20:02.381Z,7.2
2017-12-26T11:25:01.716Z,7.2
2017-12-26T11:30:01.750Z,7.2
2017-12-26T11:35:02.045Z,7.2
2017-12-26T11:40:02.346Z,7.2
2017-12-26T11:45:01.866Z,7.2
2017-12-26T11:50:01.913Z,7.2
2017-12-26T11:55:01.543Z,7.2
2017-12-26T12:00:02.429Z,7.2
2017-12-26T12:05:01.347Z,6.9
2017-12-26T12:10:01.311Z,6.9
2017-12-26T12:15:01.230Z,6.9
2017-12-26T12:20:02.500Z,6.9
2017-12-26T12:25:01.855Z,6.9
2017-12-26T12:30:01.540Z,6.9
2017-12-26T12:35:01.636Z,6.9
2017-12-26T12:40:01.615Z,6.9
2017-12-26T12:45:01.920Z,6.9
2017-12-26T12:50:01.448Z,6.9
2017-12-26T12:55:01.735Z,6.9
2017-12-26T13:00:02.151Z,6.9
2017-12-26T13:05:01.807Z,6.9
2017-12-26T13:10:02.027Z,6.9
2017-12-26T13:15:01.845Z,6.9
2017-12-26T13:20:01.618Z,6.9
2017-12-26T13:25:01.842Z,6.9
2017-12-26T13:30:02.124Z,6.9
2017-12-26T13:35:02.148Z,6.9
2017-12-26T13:40:01.935Z,6.9
2017-12-26T13:45:02.165Z,6.2
2017-12-26T13:50:02.065Z,6.2
2017-12-26T13:55:01.309Z,6.2
2017-12-26T14:00:02.057Z,6.2
2017-12-26T14:05:02.228Z,6.2
2017-12-26T14:10:01.981Z,6.2
2017-12-26T14:15:01.629Z,6.2
2017-12-26T14:20:01.389Z,6.2
2017-12-26T14:25:02.354Z,6.2
2017-12-26T14:30:01.604Z,6.2
2017-12-26T14:35:01.208Z,6.2
2017-12-26T14:40:01.242Z,5.5
2017-12-26T14:45:02.069Z,5.5
2017-12-26T14:50:01.913Z,5.5
2017-12-26T14:55:01.867Z,5.5
2017-12-26T15:00:01.383Z,5.5
2017-12-26T15:05:01.847Z,5.6
2017-12-26T15:10:01.932Z,5.6
2017-12-26T15:15:01.789Z,5.6
2017-12-26T15:20:01.993Z,5.6
2017-12-26T15:25:01.791Z,5.6
2017-12-26T15:30:01.880Z,5.6
2017-12-26T15:35:02.228Z,5.6
2017-12-26T15:40:01.750Z,5.6
2017-12-26T15:45:01.479Z,5.6
2017-12-26T15:50:01.224Z,5.6
2017-12-26T15:55:02.664Z,5.6
2017-12-26T16:00:01.783Z,5.6
2017-12-26T16:05:01.816Z,5.6
2017-12-26T16:10:01.703Z,5.6
2017-12-26T16:15:02.399Z,5.6
2017-12-26T16:20:02.036Z,5.6
2017-12-26T16:25:01.497Z,5.6
2017-12-26T16:30:01.582Z,5.6
2017-12-26T16:35:02.463Z,5.6
2017-12-26T16:40:01.920Z,5.6
2017-12-26T16:45:01.584Z,5.6
2017-12-26T16:50:01.653Z,5.6
2017-12-26T16:55:01.987Z,5.6
2017-12-26T17:00:01.983Z,5.6
2017-12-26T17:05:01.594Z,5.6
2017-12-26T17:10:02.174Z,5.6
2017-12-26T17:15:01.456Z,5.6
2017-12-26T17:20:01.338Z,5.6
2017-12-26T17:25:01.302Z,5.6
2017-12-26T17:30:01.844Z,5.6
2017-12-26T17:35:02.114Z,5.6
2017-12-26T17:40:01.730Z,5.6
2017-12-26T17:45:01.672Z,5.6
2017-12-26T17:50:01.872Z,5.6
2017-12-26T17:55:01.719Z,5.6
2017-12-26T18:00:01.549Z,5.6
2017-12-26T18:05:01.678Z,5.6
2017-12-26T18:10:01.581Z,5.6
2017-12-26T18:15:01.682Z,5.6
2017-12-26T18:20:01.429Z,5.4
2017-12-26T18:25:01.693Z,5.4
2017-12-26T18:30:02.214Z,5.4
2017-12-26T18:35:01.197Z,5.4
2017-12-26T18:40:02.107Z,5.4
2017-12-26T18:45:01.223Z,5.4
2017-12-26T18:50:02.545Z,5.4
2017-12-26T18:55:01.642Z,5.4
2017-12-26T19:00:01.716Z,5.4
2017-12-26T19:05:01.513Z,5.4
2017-12-26T19:10:01.955Z,5.4
2017-12-26T19:15:01.320Z,5.4
2017-12-26T19:20:01.705Z,5.4
2017-12-26T19:25:02.416Z,5.4
2017-12-26T19:30:01.701Z,5.4
2017-12-26T19:35:01.615Z,5.4
2017-12-26T19:40:01.538Z,5.4
2017-12-26T19:45:02.196Z,5.4
2017-12-26T19:50:01.419Z,5.4
2017-12-26T19:55:02.163Z,5.4
2017-12-26T20:00:01.307Z,5.4
2017-12-26T20:05:02.422Z,5.4
2017-12-26T20:10:01.505Z,5.4
2017-12-26T20:15:01.946Z,5.4
2017-12-26T20:20:02.407Z,5.4
2017-12-26T20:25:02.027Z,5.4
2017-12-26T20:30:02.172Z,5.4
2017-12-26T20:35:01.901Z,5.4
2017-12-26T20:40:02.246Z,5.4
2017-12-26T20:45:01.291Z,5.4
2017-12-26T20:50:02.194Z,5.4
2017-12-26T20:55:01.552Z,5.4
2017-12-26T21:00:02.025Z,5.4
2017-12-26T21:05:01.497Z,5.4
2017-12-26T21:10:01.893Z,5.4
2017-12-26T21:15:01.835Z,5.4
2017-12-26T21:20:01.885Z,5.5
2017-12-26T21:25:01.689Z,5.6
2017-12-26T21:30:02.251Z,5.5
2017-12-26T21:35:01.344Z,5.5
2017-12-26T21:40:01.364Z,5.5
2017-12-26T21:45:01.615Z,5.5
2017-12-26T21:50:01.845Z,5.5
2017-12-26T21:55:01.583Z,5.5
2017-12-26T22:00:01.683Z,5.5
2017-12-26T22:05:02.154Z,5.5
2017-12-26T22:10:01.468Z,5.5
2017-12-26T22:15:01.512Z,5.5
2017-12-26T22:20:01.620Z,5.5
2017-12-26T22:25:02.483Z,5.5
2017-12-26T22:30:01.551Z,5.5
2017-12-26T22:35:01.329Z,5.5
2017-12-26T22:40:01.572Z,5.5
2017-12-26T22:45:02.004Z,5.5
2017-12-26T22:50:01.708Z,5.2
2017-12-26T22:55:01.393Z,5.2
2017-12-26T23:00:02.430Z,5.2
2017-12-26T23:05:01.566Z,5.2
2017-12-26T23:10:02.107Z,5.2
2017-12-26T23:15:01.593Z,5.2
2017-12-26T23:20:01.651Z,5.2
2017-12-26T23:25:01.492Z,5.2
2017-12-26T23:30:01.712Z,4.9
2017-12-26T23:35:02.147Z,4.9
2017-12-26T23:40:02.125Z,4.9
2017-12-26T23:45:01.448Z,4.9
2017-12-26T23:50:01.308Z,4.9
2017-12-26T23:55:01.671Z,4.6
